Time;durP1;ratioP1;P1;durP2;ratioP2;P2;SDS_P1;SDS_P2;PMS_P1;PMS_P2;Temp;Humidity;BMP_temperature;BMP_pressure;BME280_temperature;BME280_humidity;BME280_pressure;Samples;Min_cycle;Max_cycle;Signal;HPM_P1;HPM_P2
2022/05/14 00:00:59;;;;;;;14.55;4.93;;;;;;;10.79;100.00;98404.94;4983665;28;20121;-55
2022/05/14 00:03:26;;;;;;;23.77;5.78;;;;;;;10.68;100.00;98400.06;4983540;28;20034;-55
2022/05/14 00:05:54;;;;;;;18.50;4.97;;;;;;;10.64;100.00;98405.44;4987227;28;20073;-56
2022/05/14 00:08:21;;;;;;;17.80;5.45;;;;;;;10.66;100.00;98398.41;4984319;28;20037;-56
2022/05/14 00:13:32;;;;;;;19.67;5.25;;;;;;;11.52;100.00;98392.66;4984151;28;20081;-56
2022/05/14 00:15:57;;;;;;;19.45;5.47;;;;;;;11.22;100.00;98392.91;4983256;28;20065;-54
2022/05/14 00:18:23;;;;;;;17.95;4.93;;;;;;;11.28;100.00;98395.28;4983984;28;20393;-56
2022/05/14 00:20:50;;;;;;;15.20;4.95;;;;;;;10.83;100.00;98387.41;4983023;28;20042;-54
2022/05/14 00:23:15;;;;;;;21.55;4.65;;;;;;;10.97;100.00;98395.56;4983674;28;20033;-55
2022/05/14 00:25:42;;;;;;;18.15;4.68;;;;;;;11.24;100.00;98388.47;4983197;28;20466;-55
2022/05/14 00:28:07;;;;;;;13.57;4.75;;;;;;;10.65;100.00;98388.91;4983789;28;20041;-55
2022/05/14 00:30:33;;;;;;;17.65;5.22;;;;;;;10.27;100.00;98394.47;4982661;28;20034;-55
2022/05/14 00:32:59;;;;;;;35.35;7.50;;;;;;;10.04;100.00;98398.69;4981788;28;20730;-56
2022/05/14 00:35:24;;;;;;;23.38;5.07;;;;;;;10.54;100.00;98390.09;4981112;28;20030;-55
2022/05/14 00:37:50;;;;;;;18.75;4.90;;;;;;;10.59;100.00;98389.97;4981334;28;20508;-55
2022/05/14 00:40:48;;;;;;;19.30;5.05;;;;;;;10.37;100.00;98387.25;4982094;28;20109;-56
2022/05/14 00:43:15;;;;;;;16.60;5.15;;;;;;;10.15;100.00;98390.53;4973632;28;20077;-54
2022/05/14 00:45:47;;;;;;;16.88;4.85;;;;;;;10.05;100.00;98386.50;4982703;28;20092;-57
2022/05/14 00:48:12;;;;;;;16.60;4.72;;;;;;;10.23;100.00;98391.13;4982814;28;20022;-55
2022/05/14 00:50:44;;;;;;;16.05;4.65;;;;;;;10.27;100.00;98384.03;4982669;28;20381;-55
2022/05/14 00:53:23;;;;;;;16.83;5.03;;;;;;;10.56;100.00;98387.47;4982898;28;20524;-54
2022/05/14 00:55:52;;;;;;;17.90;5.15;;;;;;;10.20;100.00;98392.97;4986212;28;20042;-54
2022/05/14 00:58:29;;;;;;;17.83;4.93;;;;;;;9.96;100.00;98397.22;4983141;28;20026;-57
2022/05/14 01:00:54;;;;;;;18.25;5.00;;;;;;;10.10;100.00;98397.63;4982170;28;20033;-57
2022/05/14 01:03:21;;;;;;;15.25;4.97;;;;;;;10.08;100.00;98391.63;4983311;28;20042;-55
2022/05/14 01:05:47;;;;;;;23.05;5.32;;;;;;;9.94;100.00;98396.44;4982337;28;20053;-54
2022/05/14 01:08:12;;;;;;;18.02;5.45;;;;;;;10.06;100.00;98390.84;4983017;28;20019;-56
2022/05/14 01:10:42;;;;;;;14.30;4.68;;;;;;;10.29;100.00;98386.59;4986101;28;20045;-56
2022/05/14 01:13:08;;;;;;;15.80;5.13;;;;;;;10.64;100.00;98389.78;4982730;28;20036;-56
2022/05/14 01:15:48;;;;;;;14.80;4.78;;;;;;;9.85;100.00;98392.34;4982542;28;20038;-54
2022/05/14 01:18:14;;;;;;;18.38;5.35;;;;;;;9.61;100.00;98399.19;4982255;28;20538;-57
2022/05/14 01:20:40;;;;;;;12.10;4.28;;;;;;;10.12;100.00;98389.78;4980938;28;20445;-55
2022/05/14 01:23:22;;;;;;;12.77;4.15;;;;;;;10.84;100.00;98386.47;4982544;28;20614;-55
2022/05/14 01:26:29;;;;;;;17.58;4.75;;;;;;;10.47;100.00;98391.22;4982085;28;20130;-56
2022/05/14 01:29:06;;;;;;;12.65;4.80;;;;;;;10.12;100.00;98385.41;4982739;28;20046;-54
2022/05/14 01:31:32;;;;;;;13.90;4.93;;;;;;;9.68;100.00;98395.50;4981827;28;20041;-54
2022/05/14 01:34:05;;;;;;;15.88;4.90;;;;;;;9.49;100.00;98386.56;4982722;28;20026;-55
2022/05/14 01:36:32;;;;;;;17.15;5.20;;;;;;;9.35;100.00;98392.19;4985813;28;20042;-54
2022/05/14 01:38:58;;;;;;;19.67;5.93;;;;;;;9.31;100.00;98391.41;4982504;28;20108;-56
2022/05/14 01:41:23;;;;;;;19.00;5.75;;;;;;;8.96;100.00;98390.69;4981769;28;20073;-56
2022/05/14 01:43:49;;;;;;;15.68;4.78;;;;;;;9.38;100.00;98397.31;4982593;28;20825;-56
2022/05/14 01:46:15;;;;;;;14.10;4.38;;;;;;;10.16;100.00;98396.59;4981841;28;20038;-56
2022/05/14 01:48:41;;;;;;;12.68;4.30;;;;;;;10.16;100.00;98397.47;4982337;28;20400;-56
2022/05/14 01:51:06;;;;;;;15.48;4.50;;;;;;;10.21;100.00;98399.91;4981578;28;20046;-55
2022/05/14 01:53:32;;;;;;;14.73;5.15;;;;;;;9.81;100.00;98396.84;4982235;28;20054;-55
2022/05/14 01:55:58;;;;;;;17.92;5.38;;;;;;;9.35;100.00;98403.44;4981592;28;20034;-55
2022/05/14 01:58:38;;;;;;;15.18;5.07;;;;;;;9.11;100.00;98398.94;4982313;28;20034;-56
2022/05/14 02:01:14;;;;;;;13.70;4.55;;;;;;;9.55;100.00;98395.03;4981890;28;20197;-55
2022/05/14 02:03:42;;;;;;;15.20;5.00;;;;;;;9.57;100.00;98400.19;4982139;28;20040;-55
2022/05/14 02:06:08;;;;;;;15.82;4.95;;;;;;;9.64;100.00;98388.69;4981368;28;20045;-55
2022/05/14 02:08:33;;;;;;;14.95;5.07;;;;;;;9.55;100.00;98395.03;4982505;28;20030;-55
2022/05/14 02:10:59;;;;;;;13.90;4.97;;;;;;;9.14;100.00;98396.28;4981690;28;20035;-54
2022/05/14 02:13:25;;;;;;;14.13;4.75;;;;;;;9.23;100.00;98403.81;4981850;28;20034;-55
2022/05/14 02:15:52;;;;;;;17.65;5.30;;;;;;;9.42;100.00;98393.69;4981549;28;20026;-55
2022/05/14 02:18:19;;;;;;;16.83;4.90;;;;;;;9.45;100.00;98389.25;4985952;28;20026;-55
2022/05/14 02:20:44;;;;;;;18.85;5.30;;;;;;;9.50;100.00;98396.06;4985545;28;20042;-55
2022/05/14 02:23:10;;;;;;;14.05;4.78;;;;;;;9.85;100.00;98381.94;4985962;28;20736;-55
2022/05/14 02:25:35;;;;;;;13.70;4.43;;;;;;;9.92;100.00;98383.44;4985790;28;20058;-55
2022/05/14 02:28:01;;;;;;;15.65;4.70;;;;;;;9.71;100.00;98386.75;4985914;28;20026;-54
2022/05/14 02:30:27;;;;;;;15.52;4.82;;;;;;;9.38;100.00;98392.09;4985725;28;20148;-56
2022/05/14 02:32:52;;;;;;;18.67;5.35;;;;;;;9.42;100.00;98386.72;4985904;28;20408;-54
2022/05/14 02:35:17;;;;;;;11.25;4.40;;;;;;;9.63;100.00;98386.97;4985289;28;20084;-56
2022/05/14 02:37:43;;;;;;;14.10;4.75;;;;;;;9.26;100.00;98385.47;4985567;28;20061;-54
2022/05/14 02:40:08;;;;;;;16.80;5.30;;;;;;;9.29;100.00;98390.59;4985018;28;20141;-55
2022/05/14 02:42:34;;;;;;;20.52;5.50;;;;;;;9.56;100.00;98385.47;4983996;28;20054;-55
2022/05/14 02:44:59;;;;;;;21.75;5.88;;;;;;;9.31;100.00;98382.75;4983285;28;20061;-56
2022/05/14 02:47:24;;;;;;;12.70;4.88;;;;;;;9.25;100.00;98374.22;4984011;28;20571;-55
2022/05/14 02:49:49;;;;;;;19.48;5.22;;;;;;;9.26;100.00;98375.06;4986022;28;20411;-56
2022/05/14 02:52:15;;;;;;;15.23;5.13;;;;;;;9.43;100.00;98375.44;4984817;28;20035;-56
2022/05/14 02:54:41;;;;;;;16.25;4.95;;;;;;;9.58;100.00;98373.25;4985848;28;20056;-55
2022/05/14 02:57:07;;;;;;;16.38;4.82;;;;;;;9.33;100.00;98371.38;4984860;28;20038;-55
2022/05/14 02:59:33;;;;;;;13.45;4.80;;;;;;;9.36;100.00;98373.06;4985600;28;20028;-55
2022/05/14 03:01:58;;;;;;;16.15;5.32;;;;;;;9.00;100.00;98371.47;4985029;28;20042;-54
2022/05/14 03:04:28;;;;;;;15.75;5.25;;;;;;;9.00;100.00;98381.88;4985449;28;20073;-56
2022/05/14 03:06:55;;;;;;;12.80;4.90;;;;;;;9.24;100.00;98372.53;4984772;28;20197;-54
2022/05/14 03:09:21;;;;;;;18.63;5.65;;;;;;;9.30;100.00;98373.22;4985493;28;20026;-56
2022/05/14 03:11:47;;;;;;;11.93;4.45;;;;;;;9.52;100.00;98370.81;4984954;28;20097;-56
2022/05/14 03:14:13;;;;;;;15.35;4.90;;;;;;;9.50;100.00;98370.03;4985017;28;20030;-54
2022/05/14 03:16:40;;;;;;;19.55;5.35;;;;;;;9.33;100.00;98366.19;4984626;28;20045;-55
2022/05/14 03:19:06;;;;;;;17.50;5.03;;;;;;;9.33;100.00;98370.53;4985086;28;20117;-55
2022/05/14 03:21:31;;;;;;;16.23;5.40;;;;;;;9.11;100.00;98367.72;4984136;28;20113;-54
2022/05/14 03:23:57;;;;;;;13.73;4.88;;;;;;;9.18;100.00;98370.09;4984902;28;20034;-54
2022/05/14 03:26:22;;;;;;;16.92;5.25;;;;;;;9.33;100.00;98368.78;4984041;28;20038;-54
2022/05/14 03:28:48;;;;;;;14.20;5.22;;;;;;;9.11;100.00;98380.75;4984920;28;20077;-55
2022/05/14 03:31:14;;;;;;;13.75;4.78;;;;;;;9.03;100.00;98378.38;4984209;28;20050;-56
2022/05/14 03:33:40;;;;;;;14.93;5.25;;;;;;;9.13;100.00;98381.53;4984486;28;20030;-55
2022/05/14 03:36:06;;;;;;;25.35;5.50;;;;;;;9.04;100.00;98385.25;4984165;28;20913;-54
2022/05/14 03:38:31;;;;;;;20.10;5.53;;;;;;;9.35;100.00;98387.81;4984437;28;20487;-55
2022/05/14 03:40:56;;;;;;;11.35;4.50;;;;;;;9.30;100.00;98381.91;4984235;28;20603;-54
2022/05/14 03:43:22;;;;;;;14.88;5.40;;;;;;;9.16;100.00;98387.50;4984799;28;20144;-56
2022/05/14 03:45:47;;;;;;;16.33;5.53;;;;;;;8.93;100.00;98385.56;4983933;28;20093;-55
2022/05/14 03:48:12;;;;;;;16.42;4.90;;;;;;;9.11;100.00;98394.59;4984574;28;20030;-54
2022/05/14 03:50:38;;;;;;;14.38;4.95;;;;;;;9.07;100.00;98398.19;4983604;28;20599;-55
2022/05/14 03:53:03;;;;;;;13.20;4.85;;;;;;;9.13;100.00;98397.16;4983186;28;20496;-56
2022/05/14 03:55:28;;;;;;;11.73;4.30;;;;;;;9.94;100.00;98391.22;4983828;28;20518;-54
2022/05/14 03:57:53;;;;;;;16.52;5.25;;;;;;;9.25;100.00;98391.59;4984120;28;20042;-55
2022/05/14 04:00:19;;;;;;;13.02;4.88;;;;;;;9.18;100.00;98392.69;4983902;28;20054;-55
2022/05/14 04:02:46;;;;;;;13.90;5.20;;;;;;;9.48;100.00;98390.91;4984026;28;20026;-54
2022/05/14 04:05:13;;;;;;;15.48;4.95;;;;;;;9.79;100.00;98398.63;4983339;28;20053;-54
2022/05/14 04:07:40;;;;;;;14.15;5.00;;;;;;;10.11;100.00;98394.16;4984073;28;20484;-55
2022/05/14 04:10:06;;;;;;;14.23;4.80;;;;;;;9.76;100.00;98396.13;4983621;28;20116;-54
2022/05/14 04:12:31;;;;;;;12.13;4.68;;;;;;;10.02;100.00;98389.22;4984155;28;20121;-55
2022/05/14 04:14:57;;;;;;;17.58;5.32;;;;;;;9.78;100.00;98396.09;4983713;28;20114;-55
2022/05/14 04:17:22;;;;;;;14.45;4.88;;;;;;;9.95;100.00;98388.56;4983591;28;20121;-55
2022/05/14 04:19:47;;;;;;;16.40;4.95;;;;;;;10.51;100.00;98387.63;4983716;28;20034;-54
2022/05/14 04:22:13;;;;;;;10.40;4.47;;;;;;;10.17;100.00;98388.72;4983527;28;20049;-56
2022/05/14 04:24:38;;;;;;;15.80;4.60;;;;;;;10.14;100.00;98388.81;4984148;28;20093;-54
2022/05/14 04:27:04;;;;;;;14.02;4.57;;;;;;;10.30;100.00;98388.31;4983418;28;20042;-54
2022/05/14 04:29:29;;;;;;;16.45;5.22;;;;;;;10.03;100.00;98389.19;4984040;28;20026;-55
2022/05/14 04:31:54;;;;;;;13.68;5.00;;;;;;;9.93;100.00;98395.59;4983216;28;20034;-56
2022/05/14 04:34:20;;;;;;;12.15;4.40;;;;;;;11.13;100.00;98390.63;4983798;28;20034;-55
2022/05/14 04:36:45;;;;;;;12.57;4.45;;;;;;;11.20;100.00;98386.91;4983013;28;20408;-54
2022/05/14 04:39:11;;;;;;;14.10;4.68;;;;;;;11.24;100.00;98387.63;4983157;28;20133;-56
2022/05/14 04:41:37;;;;;;;10.65;4.00;;;;;;;11.06;100.00;98391.78;4982962;28;20049;-55
2022/05/14 04:44:03;;;;;;;11.35;4.15;;;;;;;11.28;100.00;98392.66;4983416;28;20080;-55
2022/05/14 04:46:28;;;;;;;13.95;4.65;;;;;;;10.79;100.00;98402.31;4982520;28;20145;-56
2022/05/14 04:48:54;;;;;;;11.93;4.47;;;;;;;11.03;100.00;98394.47;4983315;28;20411;-56
2022/05/14 04:51:20;;;;;;;15.85;4.95;;;;;;;11.04;100.00;98397.03;4982247;28;20038;-56
2022/05/14 04:53:46;;;;;;;14.70;4.57;;;;;;;11.13;100.00;98407.16;4983724;28;20035;-55
2022/05/14 04:56:11;;;;;;;10.90;4.43;;;;;;;11.50;100.00;98394.47;4982561;28;20042;-56
2022/05/14 04:58:36;;;;;;;15.57;4.47;;;;;;;11.07;100.00;98399.56;4982878;28;20081;-54
2022/05/14 05:01:02;;;;;;;12.70;4.80;;;;;;;11.98;100.00;98400.47;4982597;28;20088;-55
2022/05/14 05:03:28;;;;;;;12.38;4.45;;;;;;;12.58;100.00;98400.63;4971792;28;20081;-56
2022/05/14 05:05:56;;;;;;;15.18;4.78;;;;;;;12.54;100.00;98402.53;4982337;28;20034;-56
2022/05/14 05:08:23;;;;;;;11.32;4.07;;;;;;;13.20;100.00;98402.25;4982850;28;20084;-55
2022/05/14 05:10:49;;;;;;;11.93;4.47;;;;;;;13.38;100.00;98407.56;4982292;28;20169;-55
2022/05/14 05:13:18;;;;;;;13.50;4.53;;;;;;;12.60;100.00;98409.25;4983277;28;20038;-54
2022/05/14 05:15:43;;;;;;;12.35;4.47;;;;;;;12.63;100.00;98414.38;4982305;28;20041;-56
2022/05/14 05:18:10;;;;;;;11.05;4.20;;;;;;;12.65;100.00;98413.38;4982535;28;20084;-54
2022/05/14 05:20:37;;;;;;;11.70;4.32;;;;;;;13.69;100.00;98397.38;4982196;28;20045;-55
2022/05/14 05:23:04;;;;;;;10.32;4.13;;;;;;;13.06;100.00;98412.47;4982737;28;20092;-57
2022/05/14 05:25:30;;;;;;;10.75;4.25;;;;;;;13.18;100.00;98411.06;4982448;28;20038;-57
2022/05/14 05:27:55;;;;;;;10.18;4.00;;;;;;;13.35;100.00;98407.75;4982729;28;20021;-56
2022/05/14 05:30:21;;;;;;;11.82;4.10;;;;;;;13.22;100.00;98413.50;4982466;28;20026;-56
2022/05/14 05:32:46;;;;;;;13.68;4.10;;;;;;;13.52;100.00;98405.19;4983002;28;20022;-57
2022/05/14 05:35:12;;;;;;;11.23;4.05;;;;;;;15.50;100.00;98407.50;4981987;28;20049;-55
2022/05/14 05:37:37;;;;;;;11.13;4.20;;;;;;;16.03;100.00;98405.47;4982956;28;20451;-56
2022/05/14 05:40:03;;;;;;;11.13;4.00;;;;;;;16.01;100.00;98407.34;4982000;28;20374;-56
2022/05/14 05:42:29;;;;;;;11.40;3.78;;;;;;;15.91;100.00;98409.63;4982830;28;20049;-56
2022/05/14 05:44:55;;;;;;;11.45;3.85;;;;;;;18.82;100.00;98411.94;4982314;28;20030;-57
2022/05/14 05:47:21;;;;;;;9.18;3.80;;;;;;;19.13;99.63;98402.75;4981477;28;20034;-55
2022/05/14 05:49:46;;;;;;;9.73;3.38;;;;;;;21.36;83.43;98412.81;4981623;28;20069;-56
2022/05/14 05:52:12;;;;;;;7.40;3.35;;;;;;;22.68;66.42;98405.72;4993879;28;20062;-55
2022/05/14 05:57:36;;;;;;;8.75;3.20;;;;;;;25.24;53.02;98401.63;4982121;28;20516;-58
2022/05/14 06:00:11;;;;;;;9.32;3.78;;;;;;;26.45;50.61;98407.63;4981610;28;20030;-57
2022/05/14 06:02:36;;;;;;;7.15;3.30;;;;;;;27.04;49.66;98403.44;4982342;28;20046;-57
2022/05/14 06:05:02;;;;;;;13.93;5.82;;;;;;;27.36;45.16;98399.28;4982179;28;20411;-57
2022/05/14 06:07:27;;;;;;;7.95;3.25;;;;;;;27.52;46.98;98400.38;4981999;28;20042;-56
2022/05/14 06:09:53;;;;;;;5.93;2.92;;;;;;;28.12;44.36;98400.22;4982263;28;20511;-55
2022/05/14 06:12:18;;;;;;;6.20;2.85;;;;;;;29.55;42.66;98400.59;4981407;28;20066;-55
2022/05/14 06:14:44;;;;;;;6.80;2.78;;;;;;;27.34;43.15;98406.66;4982670;28;20034;-55
2022/05/14 06:17:10;;;;;;;7.65;2.78;;;;;;;30.01;40.85;98409.84;4980860;28;20077;-56
2022/05/14 06:19:35;;;;;;;8.40;2.70;;;;;;;27.64;41.43;98407.09;4982144;28;20657;-54
2022/05/14 06:22:03;;;;;;;6.40;2.70;;;;;;;29.44;39.78;98405.53;4981407;28;20050;-55
2022/05/14 06:24:28;;;;;;;5.40;2.65;;;;;;;29.23;39.74;98409.63;4981797;28;20034;-55
2022/05/14 06:26:53;;;;;;;5.28;2.60;;;;;;;30.07;37.16;98406.41;4981228;28;20496;-56
2022/05/14 06:29:19;;;;;;;5.30;2.40;;;;;;;30.06;39.41;98408.28;4981801;28;20133;-56
2022/05/14 06:31:44;;;;;;;4.90;2.40;;;;;;;31.80;36.27;98408.34;4981209;28;20424;-56
2022/05/14 06:34:11;;;;;;;6.50;2.70;;;;;;;28.03;41.51;98406.56;4982000;28;20551;-57
2022/05/14 06:36:37;;;;;;;5.80;2.63;;;;;;;28.57;39.43;98403.50;4981216;28;20074;-55
2022/05/14 06:39:04;;;;;;;8.35;2.70;;;;;;;28.50;40.90;98405.97;4982178;28;20065;-56
2022/05/14 06:41:30;;;;;;;5.03;2.60;;;;;;;31.10;36.11;98397.03;4980802;28;20065;-56
2022/05/14 06:43:56;;;;;;;9.27;2.35;;;;;;;31.59;35.53;98396.50;4981816;28;20528;-57
2022/05/14 06:46:22;;;;;;;6.03;2.60;;;;;;;30.17;37.38;98399.78;4981121;28;20042;-55
2022/05/14 06:48:47;;;;;;;5.38;2.40;;;;;;;32.91;34.44;98405.34;4982274;28;20026;-56
2022/05/14 06:51:28;;;;;;;5.35;2.20;;;;;;;30.08;36.67;98408.09;4981306;28;20034;-55
2022/05/14 06:53:59;;;;;;;5.40;2.22;;;;;;;29.91;35.50;98404.69;4981493;28;20031;-57
2022/05/14 06:56:26;;;;;;;6.35;2.30;;;;;;;30.83;34.35;98402.00;4981048;28;20069;-55
2022/05/14 06:58:52;;;;;;;5.20;2.25;;;;;;;32.36;34.18;98403.19;4981970;28;20034;-55
2022/05/14 07:01:19;;;;;;;4.30;2.13;;;;;;;32.84;32.59;98400.72;4981063;28;20101;-57
2022/05/14 07:06:39;;;;;;;6.15;2.20;;;;;;;29.46;35.58;98414.25;4984452;28;20050;-56
2022/05/14 07:09:12;;;;;;;9.02;2.42;;;;;;;29.89;35.10;98412.09;4985362;28;20030;-55
2022/05/14 07:11:41;;;;;;;7.43;2.25;;;;;;;31.66;32.35;98402.81;4983986;28;20502;-57
2022/05/14 07:14:07;;;;;;;5.70;2.20;;;;;;;31.72;32.33;98400.38;4984885;28;20092;-56
2022/05/14 07:16:34;;;;;;;3.97;1.90;;;;;;;32.58;31.44;98395.09;4984615;28;20035;-57
2022/05/14 07:19:00;;;;;;;5.43;2.03;;;;;;;32.96;31.08;98402.91;4984689;28;20049;-57
2022/05/14 07:21:25;;;;;;;6.65;1.98;;;;;;;32.77;29.93;98399.84;4984512;28;20066;-56
2022/05/14 07:23:51;;;;;;;4.45;2.00;;;;;;;31.41;32.04;98398.72;4984908;28;20030;-56
2022/05/14 07:26:16;;;;;;;6.18;2.22;;;;;;;29.97;33.32;98401.28;4984400;28;20899;-57
2022/05/14 07:28:41;;;;;;;4.95;2.30;;;;;;;31.06;32.33;98395.72;4985071;28;20503;-57
2022/05/14 07:31:08;;;;;;;6.75;2.60;;;;;;;29.39;34.20;98406.03;4983732;28;20034;-57
2022/05/14 07:33:34;;;;;;;5.38;1.90;;;;;;;29.95;33.81;98408.69;4984741;28;20022;-58
2022/05/14 07:36:08;;;;;;;7.05;2.10;;;;;;;28.90;35.00;98404.31;4983712;28;20096;-56
2022/05/14 07:38:36;;;;;;;5.63;2.17;;;;;;;31.84;31.98;98393.47;4984706;28;20109;-56
2022/05/14 07:41:02;;;;;;;5.30;2.10;;;;;;;32.31;30.38;98394.81;4983230;28;20113;-57
2022/05/14 07:43:30;;;;;;;6.20;2.15;;;;;;;34.14;28.74;98400.16;4984636;28;20030;-56
2022/05/14 07:46:01;;;;;;;4.47;1.85;;;;;;;34.34;29.24;98390.22;4983886;28;20045;-57
2022/05/14 07:48:31;;;;;;;6.40;2.00;;;;;;;34.33;29.62;98388.56;4984020;28;20594;-56
2022/05/14 07:50:58;;;;;;;6.55;2.08;;;;;;;30.50;32.66;98396.06;4986022;28;20542;-56
2022/05/14 07:53:30;;;;;;;7.50;2.05;;;;;;;31.38;33.53;98386.44;4983937;28;20741;-60
2022/05/14 07:55:55;;;;;;;;;;;;;;;31.43;33.83;98386.72;4984273;28;20105;-57
2022/05/14 07:58:20;;;;;;;7.20;2.00;;;;;;;30.71;33.16;98392.69;4983908;28;20469;-57
2022/05/14 08:00:46;;;;;;;7.53;2.63;;;;;;;30.03;34.21;98394.34;4983507;28;20365;-58
2022/05/14 08:03:11;;;;;;;4.72;2.33;;;;;;;29.30;33.80;98386.44;4983984;28;20061;-57
2022/05/14 08:05:36;;;;;;;7.15;2.55;;;;;;;30.58;33.69;98389.78;4983624;28;20066;-57
2022/05/14 08:08:02;;;;;;;6.43;2.40;;;;;;;28.77;34.11;98383.34;4984272;28;20054;-56
2022/05/14 08:10:27;;;;;;;6.03;2.50;;;;;;;32.15;31.55;98381.56;4983374;28;20030;-57
2022/05/14 08:12:57;;;;;;;6.47;2.40;;;;;;;33.49;30.05;98380.75;4983944;28;20042;-56
2022/05/14 08:15:24;;;;;;;7.97;2.65;;;;;;;32.23;33.29;98384.16;4982110;28;20361;-56
2022/05/14 08:17:50;;;;;;;5.50;2.20;;;;;;;32.47;31.15;98386.47;4984017;28;20027;-57
2022/05/14 08:20:16;;;;;;;6.47;2.75;;;;;;;33.55;29.91;98388.91;4978940;28;20030;-56
2022/05/14 08:25:27;;;;;;;8.07;2.40;;;;;;;31.55;31.77;98388.97;4983099;28;20049;-57
2022/05/14 08:27:53;;;;;;;6.65;2.30;;;;;;;31.81;32.07;98388.47;4982874;28;20022;-56
2022/05/14 08:30:27;;;;;;;4.90;2.38;;;;;;;33.77;29.32;98381.53;4982836;28;20041;-57
2022/05/14 08:32:53;;;;;;;5.30;2.00;;;;;;;33.53;29.23;98380.16;4983621;28;20083;-58
2022/05/14 08:35:20;;;;;;;3.92;1.98;;;;;;;33.33;30.52;98379.25;4982739;28;20023;-58
2022/05/14 08:37:46;;;;;;;4.40;1.90;;;;;;;33.67;29.42;98385.66;4982875;28;20087;-57
2022/05/14 08:40:22;;;;;;;3.97;1.98;;;;;;;31.88;31.10;98381.28;4982892;28;20022;-57
2022/05/14 08:42:51;;;;;;;5.05;2.13;;;;;;;33.00;29.02;98379.84;4982928;28;20705;-56
2022/05/14 08:45:20;;;;;;;7.65;2.20;;;;;;;30.48;31.45;98377.41;4979882;28;20034;-59
2022/05/14 08:47:55;;;;;;;5.88;2.10;;;;;;;31.01;31.98;98377.44;4980898;28;20033;-57
2022/05/14 08:50:25;;;;;;;4.85;2.03;;;;;;;30.24;31.67;98381.09;4978182;28;20034;-58
2022/05/14 08:52:50;;;;;;;5.97;1.92;;;;;;;30.55;30.22;98372.13;4981438;28;20034;-56
2022/05/14 08:55:18;;;;;;;6.70;1.90;;;;;;;31.07;30.44;98371.31;4981886;28;20018;-57
2022/05/14 08:57:52;;;;;;;6.93;2.10;;;;;;;29.86;31.56;98372.94;4982968;28;20269;-57
2022/05/14 09:00:18;;;;;;;4.35;1.70;;;;;;;31.07;30.94;98365.91;4982275;28;20080;-57
2022/05/14 09:02:49;;;;;;;5.40;1.77;;;;;;;31.25;31.21;98367.41;4982594;28;20023;-58
2022/05/14 09:05:36;;;;;;;5.93;2.00;;;;;;;30.17;31.64;98364.81;4980787;28;20038;-58
2022/05/14 09:08:02;;;;;;;5.40;1.75;;;;;;;30.93;31.78;98370.28;4980907;28;20547;-58
2022/05/14 09:10:42;;;;;;;7.30;2.20;;;;;;;31.11;30.30;98366.38;4982325;28;20038;-56
2022/05/14 09:13:20;;;;;;;5.72;2.00;;;;;;;31.94;29.66;98364.31;4980748;28;20037;-57
2022/05/14 09:15:55;;;;;;;5.93;2.08;;;;;;;32.20;30.49;98365.66;4980772;28;20071;-56
2022/05/14 09:18:22;;;;;;;7.20;1.80;;;;;;;30.90;31.02;98375.19;4982619;28;20583;-57
2022/05/14 09:20:54;;;;;;;6.25;1.60;;;;;;;31.05;28.34;98362.56;4986877;28;20404;-56
2022/05/14 09:23:25;;;;;;;7.18;1.88;;;;;;;32.49;28.72;98358.44;4980923;28;20041;-56
2022/05/14 09:25:51;;;;;;;3.13;1.60;;;;;;;31.51;29.23;98364.25;4979212;28;20053;-56
2022/05/14 09:28:44;;;;;;;3.20;1.60;;;;;;;31.01;29.23;98371.19;4980706;28;20034;-58
2022/05/14 09:31:09;;;;;;;5.95;1.80;;;;;;;32.25;28.24;98358.66;4981566;28;20680;-56
2022/05/14 09:33:40;;;;;;;3.25;1.60;;;;;;;30.24;28.97;98353.38;4982223;28;20185;-55
2022/05/14 09:36:14;;;;;;;6.03;1.65;;;;;;;31.34;29.09;98360.91;4981360;28;20049;-56
2022/05/14 09:38:39;;;;;;;3.53;1.63;;;;;;;31.85;29.19;98360.06;4997313;28;20022;-57
2022/05/14 09:41:25;;;;;;;4.13;1.48;;;;;;;32.19;28.72;98358.59;4981937;28;20046;-57
2022/05/14 09:43:53;;;;;;;6.35;1.95;;;;;;;31.94;28.88;98360.81;4982328;28;20022;-57
2022/05/14 09:46:32;;;;;;;4.45;2.10;;;;;;;30.52;29.19;98353.66;4981189;28;20121;-56
2022/05/14 09:49:04;;;;;;;3.72;1.70;;;;;;;30.92;29.49;98352.44;4980972;28;20036;-59
2022/05/14 09:51:32;;;;;;;4.47;1.60;;;;;;;32.93;28.19;98349.25;4981447;28;20456;-57
2022/05/14 09:54:13;;;;;;;3.70;1.70;;;;;;;30.84;29.86;98346.28;4982520;28;20029;-58
2022/05/14 09:57:05;;;;;;;6.22;1.90;;;;;;;31.09;30.08;98346.88;4981314;28;20050;-56
2022/05/14 09:59:45;;;;;;;6.53;2.25;;;;;;;30.65;29.94;98344.97;4981694;28;20027;-55
2022/05/14 10:02:46;;;;;;;6.57;2.08;;;;;;;31.93;30.47;98348.31;4981610;28;20038;-56
2022/05/14 10:05:33;;;;;;;8.93;2.22;;;;;;;30.39;30.44;98350.75;4969868;28;20042;-56
2022/05/14 10:08:46;;;;;;;4.88;1.90;;;;;;;31.00;29.31;98350.69;4982258;28;20026;-58
2022/05/14 10:11:23;;;;;;;7.03;2.10;;;;;;;31.41;30.61;98344.81;4977747;28;20042;-56
2022/05/14 10:14:13;;;;;;;5.93;2.00;;;;;;;30.64;30.61;98345.97;4981843;28;20062;-57
2022/05/14 10:16:59;;;;;;;8.98;2.55;;;;;;;30.41;31.53;98343.31;4981058;28;20049;-57
2022/05/14 10:19:49;;;;;;;7.75;2.45;;;;;;;30.35;30.77;98339.50;4980711;28;20032;-56
2022/05/14 10:28:43;;;;;;;6.45;2.67;;;;;;;30.91;30.52;98341.84;4981068;28;20723;-55
2022/05/14 10:31:24;;;;;;;10.77;2.47;;;;;;;29.56;30.45;98339.66;4981351;28;20049;-55
2022/05/14 10:33:54;;;;;;;6.78;2.22;;;;;;;30.88;30.93;98336.78;4981903;28;20491;-56
2022/05/14 10:36:45;;;;;;;7.70;2.40;;;;;;;29.32;30.10;98329.88;4981020;28;20073;-56
2022/05/14 10:39:39;;;;;;;11.82;2.92;;;;;;;29.47;31.76;98328.09;4999966;28;20404;-55
2022/05/14 10:42:16;;;;;;;7.25;2.30;;;;;;;29.20;31.70;98332.06;4985169;28;20038;-55
2022/05/14 10:44:49;;;;;;;8.00;2.28;;;;;;;28.90;32.38;98328.28;4985218;28;20026;-56
2022/05/14 10:47:17;;;;;;;6.82;2.17;;;;;;;28.48;31.91;98330.16;4985048;28;20046;-56
2022/05/14 10:50:09;;;;;;;8.20;2.40;;;;;;;29.51;31.85;98325.91;4985076;28;20026;-56
2022/05/14 10:52:37;;;;;;;7.55;2.53;;;;;;;30.46;33.00;98320.22;4985484;28;20081;-58
2022/05/14 10:55:13;;;;;;;9.32;2.40;;;;;;;29.01;32.75;98314.50;4985125;28;20113;-56
2022/05/14 10:57:45;;;;;;;7.05;2.20;;;;;;;29.72;30.95;98312.69;4984947;28;20056;-57
2022/05/14 11:00:31;;;;;;;7.20;2.42;;;;;;;29.26;31.39;98317.94;4984107;28;20435;-57
2022/05/14 11:03:03;;;;;;;11.00;2.33;;;;;;;30.02;29.71;98310.16;4985335;28;20081;-57
2022/05/14 11:05:31;;;;;;;7.80;2.25;;;;;;;30.12;30.64;98301.81;4984940;28;20396;-56
2022/05/14 11:08:07;;;;;;;7.10;2.42;;;;;;;30.60;29.09;98301.59;4985080;28;20030;-56
2022/05/14 11:10:35;;;;;;;6.35;2.22;;;;;;;30.81;30.25;98300.88;4984168;28;20480;-56
2022/05/14 11:13:23;;;;;;;6.90;2.40;;;;;;;29.84;30.25;98298.84;4984943;28;20042;-55
2022/05/14 11:16:03;;;;;;;8.57;2.33;;;;;;;29.47;30.32;98297.72;4984292;28;20038;-57
2022/05/14 11:18:29;;;;;;;7.05;2.40;;;;;;;28.47;31.19;98298.97;4985017;28;20042;-56
2022/05/14 11:21:03;;;;;;;8.82;2.47;;;;;;;31.07;28.61;98292.34;4984204;28;20034;-57
2022/05/14 11:23:29;;;;;;;7.53;2.30;;;;;;;29.47;31.32;98290.47;4985019;28;20362;-57
2022/05/14 11:26:05;;;;;;;7.13;2.53;;;;;;;28.99;31.60;98281.63;4984661;28;20042;-57
2022/05/14 11:28:31;;;;;;;6.95;2.25;;;;;;;29.16;31.94;98295.84;4984722;28;20037;-58
2022/05/14 11:31:14;;;;;;;8.68;2.15;;;;;;;28.82;31.96;98288.88;4983882;28;20038;-57
2022/05/14 11:33:40;;;;;;;10.90;2.25;;;;;;;27.98;32.80;98297.16;4985132;28;20096;-56
2022/05/14 11:36:11;;;;;;;9.30;2.42;;;;;;;29.09;33.05;98294.81;4984163;28;20034;-58
2022/05/14 11:38:42;;;;;;;8.93;2.30;;;;;;;28.42;31.74;98288.75;4984528;28;20041;-56
2022/05/14 11:41:09;;;;;;;10.13;2.30;;;;;;;28.17;32.19;98285.25;4983565;28;20471;-56
2022/05/14 11:43:39;;;;;;;9.82;3.17;;;;;;;28.09;33.16;98279.91;4984246;28;20030;-59
2022/05/14 11:46:23;;;;;;;11.57;2.20;;;;;;;27.60;31.74;98279.81;4983818;28;20034;-56
2022/05/14 11:48:56;;;;;;;7.47;2.60;;;;;;;27.35;32.50;98277.09;4983564;28;20030;-58
2022/05/14 11:51:56;;;;;;;8.57;2.50;;;;;;;28.09;33.38;98274.53;4983607;28;20801;-57
2022/05/14 11:54:26;;;;;;;5.63;2.13;;;;;;;28.59;31.63;98273.50;4984215;28;20030;-56